createdAt,value
2018-12-18T00:00:09.441Z,32.40
2018-12-18T00:02:42.138Z,32.40
2018-12-18T00:05:19.458Z,32.40
2018-12-18T00:10:21.081Z,32.50
2018-12-18T00:12:51.916Z,32.30
2018-12-18T00:15:22.516Z,32.40
2018-12-18T00:17:52.483Z,32.40
2018-12-18T00:20:22.888Z,32.30
2018-12-18T00:22:53.417Z,32.40
2018-12-18T00:25:25.194Z,32.40
2018-12-18T00:27:55.401Z,32.40
2018-12-18T00:30:25.936Z,32.40
2018-12-18T00:32:56.462Z,32.40
2018-12-18T00:35:26.991Z,32.40
2018-12-18T00:37:58.749Z,32.40
2018-12-18T00:40:29.130Z,32.40
2018-12-18T00:43:00.116Z,32.30
2018-12-18T00:45:30.489Z,32.30
2018-12-18T00:48:00.861Z,32.30
2018-12-18T00:50:31.085Z,32.30
2018-12-18T00:53:02.041Z,32.30
2018-12-18T00:55:32.453Z,32.20
2018-12-18T00:58:02.682Z,32.30
2018-12-18T01:00:33.257Z,32.20
2018-12-18T01:03:04.637Z,32.20
2018-12-18T01:05:34.882Z,32.20
2018-12-18T01:08:05.719Z,32.20
2018-12-18T01:10:36.552Z,32.10
2018-12-18T01:13:06.157Z,32.10
2018-12-18T01:15:37.000Z,32.00
2018-12-18T01:18:07.213Z,32.80
2018-12-18T01:20:37.744Z,32.10
2018-12-18T01:23:08.277Z,32.10
2018-12-18T01:25:38.454Z,32.10
2018-12-18T01:28:09.334Z,32.10
2018-12-18T01:30:40.487Z,32.20
2018-12-18T01:33:11.006Z,32.10
2018-12-18T01:35:41.532Z,32.10
2018-12-18T01:40:41.220Z,32.10
2018-12-18T01:43:11.914Z,32.10
2018-12-18T01:45:42.733Z,32.00
2018-12-18T01:48:13.261Z,32.00
2018-12-18T01:50:44.714Z,32.00
2018-12-18T01:53:15.248Z,32.10
2018-12-18T01:55:45.415Z,32.10
2018-12-18T01:58:15.685Z,32.10
2018-12-18T02:00:46.214Z,32.10
2018-12-18T02:03:16.540Z,32.10
2018-12-18T02:05:46.965Z,32.70
2018-12-18T02:08:16.964Z,32.10
2018-12-18T02:10:47.412Z,32.00
2018-12-18T02:13:17.405Z,32.10
2018-12-18T02:15:47.887Z,32.00
2018-12-18T02:18:18.076Z,32.70
2018-12-18T02:20:48.372Z,32.00
2018-12-18T02:23:18.521Z,32.00
2018-12-18T02:25:48.802Z,32.70
2018-12-18T02:28:18.995Z,32.00
2018-12-18T02:30:49.186Z,32.00
2018-12-18T02:33:19.658Z,32.00
2018-12-18T02:35:49.795Z,31.90
2018-12-18T02:38:20.198Z,31.90
2018-12-18T02:40:50.384Z,32.00
2018-12-18T02:43:20.601Z,32.00
2018-12-18T02:45:50.641Z,32.00
2018-12-18T02:48:20.573Z,32.00
2018-12-18T02:50:50.968Z,31.90
2018-12-18T02:53:21.798Z,32.00
2018-12-18T02:55:52.044Z,31.90
2018-12-18T02:58:22.027Z,32.00
2018-12-18T03:00:52.463Z,31.90
2018-12-18T03:03:23.104Z,32.00
2018-12-18T03:05:53.219Z,31.90
2018-12-18T03:08:23.746Z,31.90
2018-12-18T03:13:24.815Z,32.00
2018-12-18T03:15:55.491Z,32.10
2018-12-18T03:18:25.868Z,32.10
2018-12-18T03:20:55.980Z,32.00
2018-12-18T03:23:26.716Z,32.00
2018-12-18T03:25:57.237Z,32.00
2018-12-18T03:28:27.790Z,32.00
2018-12-18T03:33:27.737Z,32.70
2018-12-18T03:35:57.825Z,32.00
2018-12-18T03:38:28.348Z,32.00
2018-12-18T03:40:58.889Z,32.00
2018-12-18T03:43:29.108Z,32.00
2018-12-18T03:45:59.725Z,32.10
2018-12-18T03:48:29.609Z,32.00
2018-12-18T03:51:00.395Z,32.00
2018-12-18T03:53:30.925Z,32.10
2018-12-18T03:56:01.288Z,32.00
2018-12-18T03:58:31.167Z,32.00
2018-12-18T04:01:01.595Z,32.00
2018-12-18T04:03:31.806Z,32.00
2018-12-18T04:06:02.347Z,32.00
2018-12-18T04:08:33.474Z,32.00
2018-12-18T04:11:04.017Z,32.00
2018-12-18T04:13:34.541Z,32.00
2018-12-18T04:16:05.235Z,32.00
2018-12-18T04:18:35.595Z,32.00
2018-12-18T04:21:05.813Z,32.00
2018-12-18T04:23:36.038Z,32.00
2018-12-18T04:26:06.056Z,32.00
2018-12-18T04:28:36.177Z,32.00
2018-12-18T04:31:06.867Z,32.00
2018-12-18T04:33:37.855Z,32.60
2018-12-18T04:36:08.680Z,32.00
2018-12-18T04:38:39.213Z,32.00
2018-12-18T04:41:10.053Z,32.00
2018-12-18T04:43:40.269Z,32.00
2018-12-18T04:46:10.813Z,32.00
2018-12-18T04:48:41.329Z,32.00
2018-12-18T04:51:12.473Z,32.00
2018-12-18T04:53:42.700Z,32.10
2018-12-18T04:56:13.228Z,32.10
2018-12-18T04:58:43.473Z,32.00
2018-12-18T05:01:14.280Z,32.10
2018-12-18T05:03:44.594Z,32.10
2018-12-18T05:06:14.449Z,32.10
2018-12-18T05:08:44.864Z,32.00
2018-12-18T05:11:15.991Z,32.00
2018-12-18T05:13:46.213Z,32.10
2018-12-18T05:16:16.747Z,32.00
2018-12-18T05:18:47.173Z,32.10
2018-12-18T05:21:17.582Z,32.00
2018-12-18T05:23:47.807Z,32.00
2018-12-18T05:26:18.057Z,32.00
2018-12-18T05:28:48.260Z,32.10
2018-12-18T05:31:18.570Z,32.10
2018-12-18T05:33:48.621Z,32.10
2018-12-18T05:38:49.149Z,32.40
2018-12-18T05:41:19.705Z,32.60
2018-12-18T05:43:50.005Z,32.70
2018-12-18T05:46:20.570Z,32.60
2018-12-18T05:48:51.078Z,32.40
2018-12-18T05:51:22.205Z,32.50
2018-12-18T05:53:52.782Z,32.50
2018-12-18T05:56:22.977Z,32.50
2018-12-18T05:58:53.489Z,32.60
2018-12-18T06:01:24.352Z,32.40
2018-12-18T06:03:54.304Z,32.50
2018-12-18T06:09:26.022Z,32.70
2018-12-18T06:11:56.246Z,32.50
2018-12-18T06:14:26.578Z,32.50
2018-12-18T06:16:56.989Z,32.70
2018-12-18T06:19:27.830Z,32.60
2018-12-18T06:21:58.968Z,32.70
2018-12-18T06:24:29.045Z,32.60
2018-12-18T06:26:58.933Z,32.50
2018-12-18T06:29:29.220Z,32.70
2018-12-18T06:31:59.472Z,32.70
2018-12-18T06:34:29.984Z,32.60
2018-12-18T06:36:59.432Z,32.70
2018-12-18T06:39:29.505Z,32.60
2018-12-18T06:41:59.721Z,33.30
2018-12-18T06:44:29.027Z,32.70
2018-12-18T06:46:59.670Z,32.70
2018-12-18T06:49:29.780Z,32.70
2018-12-18T06:51:59.997Z,32.70
2018-12-18T06:54:30.354Z,32.70
2018-12-18T06:57:01.082Z,32.70
2018-12-18T06:59:31.374Z,32.60
2018-12-18T07:02:01.504Z,32.60
2018-12-18T07:04:31.126Z,32.70
2018-12-18T07:07:01.948Z,32.70
2018-12-18T07:09:32.777Z,32.80
2018-12-18T07:12:03.597Z,32.80
2018-12-18T07:14:34.255Z,32.80
2018-12-18T07:17:04.835Z,32.80
2018-12-18T07:19:35.308Z,32.80
2018-12-18T07:22:05.832Z,32.70
2018-12-18T07:24:35.865Z,32.70
2018-12-18T07:27:05.974Z,32.70
2018-12-18T07:29:36.193Z,32.70
2018-12-18T07:32:06.722Z,32.70
2018-12-18T07:34:37.251Z,32.80
2018-12-18T07:37:07.870Z,32.70
2018-12-18T07:39:37.903Z,32.70
2018-12-18T07:42:08.227Z,32.70
2018-12-18T07:44:38.257Z,32.80
2018-12-18T07:47:08.670Z,32.70
2018-12-18T07:49:38.956Z,32.70
2018-12-18T07:52:09.134Z,32.70
2018-12-18T07:54:39.646Z,32.80
2018-12-18T07:57:09.796Z,32.80
2018-12-18T07:59:40.084Z,32.70
2018-12-18T08:02:10.249Z,32.70
2018-12-18T08:04:40.038Z,32.70
2018-12-18T08:07:10.442Z,32.70
2018-12-18T08:09:41.013Z,32.70
2018-12-18T08:12:11.820Z,32.70
2018-12-18T08:14:42.043Z,32.70
2018-12-18T08:19:42.652Z,32.70
2018-12-18T08:22:13.493Z,32.70
2018-12-18T08:24:43.883Z,32.70
2018-12-18T08:27:13.975Z,32.70
2018-12-18T08:29:44.097Z,32.60
2018-12-18T08:32:13.924Z,32.50
2018-12-18T08:34:43.772Z,32.40
2018-12-18T08:37:14.033Z,32.20
2018-12-18T08:39:44.253Z,32.10
2018-12-18T08:42:14.782Z,31.80
2018-12-18T08:44:45.428Z,31.50
2018-12-18T08:47:15.929Z,31.30
2018-12-18T08:49:45.917Z,31.00
2018-12-18T08:52:15.981Z,30.90
2018-12-18T08:54:46.553Z,30.90
2018-12-18T08:57:16.729Z,30.90
2018-12-18T08:59:47.420Z,30.90
2018-12-18T09:02:17.785Z,31.40
2018-12-18T09:04:48.633Z,30.60
2018-12-18T09:07:18.840Z,30.50
2018-12-18T09:09:49.377Z,30.40
2018-12-18T09:12:19.676Z,30.30
2018-12-18T09:14:55.350Z,30.30
2018-12-18T09:17:31.101Z,30.20
2018-12-18T09:20:01.438Z,30.20
2018-12-18T09:22:31.717Z,30.00
2018-12-18T09:25:02.081Z,30.00
2018-12-18T09:27:32.225Z,30.00
2018-12-18T09:30:02.373Z,30.00
2018-12-18T09:32:33.354Z,30.00
2018-12-18T09:35:04.500Z,29.90
2018-12-18T09:37:35.339Z,29.90
2018-12-18T09:40:07.608Z,29.80
2018-12-18T09:42:43.153Z,29.80
2018-12-18T09:45:13.725Z,29.60
2018-12-18T09:47:44.270Z,29.60
2018-12-18T09:50:14.429Z,29.50
2018-12-18T09:52:44.958Z,29.50
2018-12-18T09:55:15.797Z,29.40
2018-12-18T09:57:51.861Z,29.50
2018-12-18T10:00:22.379Z,29.50
2018-12-18T10:02:53.224Z,30.00
2018-12-18T10:05:23.758Z,29.50
2018-12-18T10:07:54.292Z,29.40
2018-12-18T10:10:24.826Z,29.40
2018-12-18T10:12:55.658Z,29.20
2018-12-18T10:15:26.630Z,29.10
2018-12-18T10:17:56.794Z,29.00
2018-12-18T10:20:27.306Z,29.00
2018-12-18T10:22:58.374Z,29.10
2018-12-18T10:27:58.518Z,29.10
2018-12-18T10:30:28.846Z,29.10
2018-12-18T10:32:59.413Z,29.10
2018-12-18T10:35:29.558Z,29.30
2018-12-18T10:37:59.542Z,30.00
2018-12-18T10:40:30.320Z,29.80
2018-12-18T10:43:01.386Z,30.00
2018-12-18T10:45:33.133Z,30.40
2018-12-18T10:48:03.692Z,30.60
2018-12-18T10:50:33.889Z,30.90
2018-12-18T10:53:04.573Z,31.10
2018-12-18T10:55:35.566Z,31.10
2018-12-18T10:58:06.417Z,31.10
2018-12-18T11:00:42.345Z,31.20
2018-12-18T11:03:13.081Z,31.30
2018-12-18T11:05:43.825Z,31.00
2018-12-18T11:08:14.490Z,30.40
2018-12-18T11:10:44.885Z,30.40
2018-12-18T11:13:16.847Z,30.70
2018-12-18T11:15:47.890Z,30.70
2018-12-18T11:18:19.857Z,31.10
2018-12-18T11:20:50.471Z,31.10
2018-12-18T11:23:20.698Z,31.20
2018-12-18T11:25:51.436Z,31.20
2018-12-18T11:28:21.536Z,31.30
2018-12-18T11:33:21.188Z,31.50
2018-12-18T11:35:51.713Z,31.60
2018-12-18T11:38:22.293Z,31.40
2018-12-18T11:40:52.772Z,31.40
2018-12-18T11:43:23.301Z,31.40
2018-12-18T11:45:53.474Z,31.50
2018-12-18T11:50:53.165Z,31.50
2018-12-18T11:53:23.048Z,31.40
2018-12-18T11:55:52.989Z,31.60
2018-12-18T11:58:22.885Z,31.40
2018-12-18T12:00:52.720Z,31.50
2018-12-18T12:03:22.704Z,31.50
2018-12-18T12:05:55.302Z,32.20
2018-12-18T12:08:25.727Z,31.50
2018-12-18T12:10:56.663Z,31.00
2018-12-18T12:13:27.502Z,30.10
2018-12-18T12:15:57.723Z,30.00
2018-12-18T12:18:29.169Z,30.10
2018-12-18T12:20:59.205Z,30.30
2018-12-18T12:23:29.938Z,30.40
2018-12-18T12:26:04.187Z,30.50
2018-12-18T12:28:34.382Z,30.60
2018-12-18T12:31:04.891Z,30.70
2018-12-18T12:33:35.148Z,30.80
2018-12-18T12:38:34.634Z,30.90
2018-12-18T12:41:05.476Z,30.90
2018-12-18T12:43:36.922Z,31.00
2018-12-18T12:46:07.334Z,31.10
2018-12-18T12:48:42.909Z,31.10
2018-12-18T12:51:13.116Z,31.10
2018-12-18T12:53:44.265Z,31.10
2018-12-18T12:56:14.914Z,31.10
2018-12-18T12:58:45.312Z,31.20
2018-12-18T13:01:15.954Z,31.20
2018-12-18T13:03:46.703Z,31.20
2018-12-18T13:06:16.909Z,31.30
2018-12-18T13:08:47.245Z,31.30
2018-12-18T13:11:17.353Z,31.40
2018-12-18T13:13:47.883Z,31.40
2018-12-18T13:16:18.409Z,31.40
2018-12-18T13:18:49.245Z,31.40
2018-12-18T13:21:20.394Z,31.40
2018-12-18T13:23:50.913Z,31.50
2018-12-18T13:26:21.450Z,31.50
2018-12-18T13:28:51.670Z,31.40
2018-12-18T13:31:22.513Z,31.60
2018-12-18T13:33:52.738Z,31.60
2018-12-18T13:36:23.253Z,31.50
2018-12-18T13:38:53.890Z,31.60
2018-12-18T13:41:24.314Z,32.20
2018-12-18T13:43:54.322Z,31.00
2018-12-18T13:46:24.273Z,30.70
2018-12-18T13:48:54.244Z,29.80
2018-12-18T13:51:24.590Z,29.90
2018-12-18T13:53:56.350Z,30.00
2018-12-18T13:56:26.877Z,30.40
2018-12-18T13:58:58.640Z,30.50
2018-12-18T14:01:29.185Z,30.70
2018-12-18T14:03:59.380Z,30.90
2018-12-18T14:06:29.917Z,31.00
2018-12-18T14:09:00.503Z,30.90
2018-12-18T14:11:30.502Z,30.90
2018-12-18T14:14:00.884Z,31.10
2018-12-18T14:16:30.502Z,31.30
2018-12-18T14:19:00.681Z,31.60
2018-12-18T14:21:32.035Z,31.60
2018-12-18T14:24:02.389Z,31.70
2018-12-18T14:26:33.034Z,31.60
2018-12-18T14:29:02.923Z,31.80
2018-12-18T14:31:33.062Z,31.80
2018-12-18T14:34:04.510Z,31.90
2018-12-18T14:36:35.038Z,32.00
2018-12-18T14:39:08.700Z,32.20
2018-12-18T14:41:41.321Z,32.20
2018-12-18T14:44:12.461Z,32.20
2018-12-18T14:46:42.688Z,32.30
2018-12-18T14:49:13.843Z,32.30
2018-12-18T14:51:44.044Z,33.10
2018-12-18T14:54:14.888Z,32.60
2018-12-18T14:56:45.422Z,32.50
2018-12-18T14:59:16.253Z,32.50
2018-12-18T15:01:46.921Z,32.60
2018-12-18T15:04:17.252Z,32.60
2018-12-18T15:06:47.840Z,32.70
2018-12-18T15:09:18.505Z,32.70
2018-12-18T15:11:49.326Z,32.70
2018-12-18T15:14:19.736Z,32.70
2018-12-18T15:16:50.262Z,32.70
2018-12-18T15:19:20.593Z,32.80
2018-12-18T15:21:52.259Z,32.60
2018-12-18T15:24:22.788Z,32.60
2018-12-18T15:26:53.314Z,32.60
2018-12-18T15:29:23.843Z,32.60
2018-12-18T15:31:54.985Z,32.70
2018-12-18T15:34:25.514Z,32.60
2018-12-18T15:36:56.033Z,32.40
2018-12-18T15:39:25.282Z,32.40
2018-12-18T15:41:55.249Z,32.30
2018-12-18T15:44:25.785Z,32.30
2018-12-18T15:46:56.320Z,32.20
2018-12-18T15:49:25.724Z,32.10
2018-12-18T15:51:56.137Z,32.10
2018-12-18T15:54:26.868Z,32.10
2018-12-18T15:59:27.265Z,32.10
2018-12-18T16:01:57.601Z,32.10
2018-12-18T16:04:27.866Z,32.10
2018-12-18T16:06:58.399Z,32.10
2018-12-18T16:09:28.655Z,32.10
2018-12-18T16:11:58.841Z,32.00
2018-12-18T16:14:29.009Z,32.00
2018-12-18T16:16:59.245Z,31.90
2018-12-18T16:19:29.927Z,32.00
2018-12-18T16:22:00.040Z,32.00
2018-12-18T16:24:30.568Z,32.00
2018-12-18T16:27:00.817Z,32.00
2018-12-18T16:29:31.621Z,32.00
2018-12-18T16:32:02.147Z,32.00
2018-12-18T16:34:32.988Z,32.70
2018-12-18T16:37:03.210Z,32.00
2018-12-18T16:39:33.730Z,32.00
2018-12-18T16:42:03.892Z,32.00
2018-12-18T16:44:33.733Z,32.00
2018-12-18T16:47:04.140Z,32.00
2018-12-18T16:49:34.927Z,32.00
2018-12-18T16:52:04.931Z,31.90
2018-12-18T16:54:35.073Z,31.90
2018-12-18T16:57:13.183Z,31.90
2018-12-18T16:59:40.851Z,31.90
2018-12-18T17:02:10.803Z,31.90
2018-12-18T17:04:41.245Z,31.90
2018-12-18T17:07:11.414Z,31.90
2018-12-18T17:09:41.587Z,31.90
2018-12-18T17:12:11.851Z,31.90
2018-12-18T17:14:42.682Z,32.00
2018-12-18T17:17:13.521Z,31.90
2018-12-18T17:19:44.367Z,32.00
2018-12-18T17:22:15.839Z,32.00
2018-12-18T17:24:46.343Z,32.00
2018-12-18T17:27:16.561Z,32.00
2018-12-18T17:29:46.890Z,32.00
2018-12-18T17:32:17.241Z,31.90
2018-12-18T17:34:47.339Z,31.90
2018-12-18T17:37:17.754Z,31.90
2018-12-18T17:39:48.589Z,32.00
2018-12-18T17:42:19.130Z,32.00
2018-12-18T17:44:49.642Z,32.00
2018-12-18T17:47:20.551Z,32.70
2018-12-18T17:49:50.805Z,32.00
2018-12-18T17:52:20.928Z,32.00
2018-12-18T17:54:51.852Z,32.00
2018-12-18T17:57:22.194Z,32.00
2018-12-18T17:59:52.517Z,32.00
2018-12-18T18:02:23.721Z,32.10
2018-12-18T18:04:54.261Z,32.00
2018-12-18T18:07:24.527Z,32.00
2018-12-18T18:09:55.259Z,32.00
2018-12-18T18:12:29.955Z,32.00
2018-12-18T18:14:56.951Z,32.00
2018-12-18T18:17:28.165Z,32.10
2018-12-18T18:19:58.588Z,32.00
2018-12-18T18:22:28.814Z,32.10
2018-12-18T18:24:59.372Z,32.10
2018-12-18T18:27:29.876Z,32.70
2018-12-18T18:30:00.117Z,32.10
2018-12-18T18:32:30.120Z,32.10
2018-12-18T18:35:00.849Z,32.20
2018-12-18T18:37:32.910Z,32.20
2018-12-18T18:40:03.438Z,32.20
2018-12-18T18:42:33.757Z,32.20
2018-12-18T18:45:04.842Z,32.20
2018-12-18T18:47:35.716Z,32.20
2018-12-18T18:50:08.138Z,32.20
2018-12-18T18:52:38.258Z,32.10
2018-12-18T18:55:08.802Z,32.80
2018-12-18T18:57:39.308Z,32.20
2018-12-18T19:00:09.824Z,32.20
2018-12-18T19:02:40.070Z,32.20
2018-12-18T19:05:10.924Z,32.20
2018-12-18T19:07:41.175Z,32.20
2018-12-18T19:10:12.386Z,32.30
2018-12-18T19:12:42.467Z,32.20
2018-12-18T19:15:13.014Z,32.20
2018-12-18T19:17:43.222Z,32.20
2018-12-18T19:20:14.993Z,32.20
2018-12-18T19:22:45.509Z,32.20
2018-12-18T19:25:16.796Z,32.20
2018-12-18T19:27:48.305Z,32.20
2018-12-18T19:30:19.176Z,32.20
2018-12-18T19:32:50.100Z,32.20
2018-12-18T19:35:20.608Z,32.20
2018-12-18T19:37:51.218Z,32.20
2018-12-18T19:40:21.484Z,32.20
2018-12-18T19:42:51.361Z,32.20
2018-12-18T19:45:20.366Z,32.20
2018-12-18T19:47:50.601Z,32.20
2018-12-18T19:50:20.735Z,32.20
2018-12-18T19:52:50.999Z,32.30
2018-12-18T19:55:21.179Z,32.30
2018-12-18T19:57:51.354Z,32.30
2018-12-18T20:00:21.437Z,32.30
2018-12-18T20:02:52.462Z,32.40
2018-12-18T20:05:23.042Z,32.40
2018-12-18T20:07:54.165Z,32.50
2018-12-18T20:10:24.458Z,32.50
2018-12-18T20:12:54.248Z,32.70
2018-12-18T20:15:24.575Z,32.60
2018-12-18T20:17:57.166Z,32.50
2018-12-18T20:20:28.356Z,32.90
2018-12-18T20:22:58.537Z,32.90
2018-12-18T20:25:28.517Z,32.90
2018-12-18T20:27:58.779Z,33.00
2018-12-18T20:30:28.920Z,33.00
2018-12-18T20:33:00.048Z,32.90
2018-12-18T20:35:30.889Z,32.90
2018-12-18T20:38:01.399Z,32.80
2018-12-18T20:40:31.695Z,32.70
2018-12-18T20:43:02.555Z,32.60
2018-12-18T20:45:32.996Z,32.50
2018-12-18T20:48:03.191Z,32.40
2018-12-18T20:50:33.728Z,32.30
2018-12-18T20:53:04.269Z,32.20
2018-12-18T20:55:34.796Z,31.90
2018-12-18T20:58:06.353Z,31.80
2018-12-18T21:00:37.395Z,31.80
2018-12-18T21:03:08.233Z,31.70
2018-12-18T21:05:38.529Z,31.80
2018-12-18T21:08:08.666Z,31.70
2018-12-18T21:10:38.876Z,31.70
2018-12-18T21:13:14.952Z,31.50
2018-12-18T21:15:44.899Z,31.50
2018-12-18T21:18:15.082Z,31.40
2018-12-18T21:20:45.926Z,31.20
2018-12-18T21:23:16.942Z,31.30
2018-12-18T21:25:46.974Z,31.20
2018-12-18T21:28:17.512Z,31.30
2018-12-18T21:30:48.353Z,31.40
2018-12-18T21:33:18.852Z,31.30
2018-12-18T21:35:49.046Z,31.90
2018-12-18T21:38:19.937Z,31.10
2018-12-18T21:40:50.743Z,31.10
2018-12-18T21:43:21.407Z,31.50
2018-12-18T21:45:52.057Z,32.00
2018-12-18T21:48:22.373Z,32.90
2018-12-18T21:50:53.208Z,32.80
2018-12-18T21:53:24.312Z,32.70
2018-12-18T21:55:54.415Z,32.70
2018-12-18T21:58:24.905Z,32.70
2018-12-18T22:00:55.023Z,32.80
2018-12-18T22:03:25.237Z,33.00
2018-12-18T22:05:55.754Z,33.00
2018-12-18T22:08:26.286Z,33.10
2018-12-18T22:10:57.295Z,33.20
2018-12-18T22:13:27.675Z,33.20
2018-12-18T22:15:58.151Z,33.40
2018-12-18T22:18:28.415Z,33.40
2018-12-18T22:20:58.474Z,33.40
2018-12-18T22:23:28.866Z,33.50
2018-12-18T22:25:59.676Z,33.50
2018-12-18T22:28:29.899Z,33.50
2018-12-18T22:31:00.372Z,33.60
2018-12-18T22:33:30.955Z,33.50
2018-12-18T22:36:01.485Z,33.60
2018-12-18T22:38:32.010Z,33.70
2018-12-18T22:41:02.231Z,33.60
2018-12-18T22:43:32.761Z,33.60
2018-12-18T22:46:03.345Z,33.60
2018-12-18T22:48:33.476Z,33.50
2018-12-18T22:51:03.735Z,33.50
2018-12-18T22:53:34.270Z,33.50
2018-12-18T22:56:04.832Z,33.50
2018-12-18T22:58:36.560Z,33.50
2018-12-18T23:03:14.878Z,33.50
2018-12-18T23:05:45.409Z,33.60
2018-12-18T23:08:15.440Z,33.50
2018-12-18T23:10:45.540Z,33.50
2018-12-18T23:13:21.607Z,33.50
2018-12-18T23:15:52.133Z,33.60
2018-12-18T23:18:23.581Z,33.50
2018-12-18T23:20:53.874Z,33.50
2018-12-18T23:23:24.333Z,33.50
2018-12-18T23:25:54.867Z,33.50
2018-12-18T23:28:25.086Z,33.50
2018-12-18T23:30:55.766Z,33.40
2018-12-18T23:33:25.805Z,33.40
2018-12-18T23:35:56.001Z,33.40
2018-12-18T23:38:27.109Z,33.40
2018-12-18T23:40:57.943Z,33.40
2018-12-18T23:43:28.133Z,33.40
2018-12-18T23:45:58.568Z,33.40
2018-12-18T23:48:28.976Z,33.30
2018-12-18T23:50:59.063Z,33.30
2018-12-18T23:53:29.046Z,33.30
2018-12-18T23:55:59.270Z,33.60
2018-12-18T23:58:29.915Z,33.30
